Captiva, FL (33924)

7:10 AM EST on February 27, 2015 (GMT -0500)
KFLST.JA1 | Change Station
CLOSE
Current Station
Personal Weather Station
Location: St. James City, FL
Elevation: 5 ft
Nearby Weather Stations

Elev 5 ft 26.50 °N, 82.08 °W | Updated 7 seconds ago

Overcast
Overcast
58.5 °F
Feels Like 58.5 °F
N
3.0
Wind Variable Wind from NNE
Gusts 8.0 mph

Today
High -- | Low -- °F
--% Chance of Precip.
Yesterday
High -- | Low -- °F
Precip. -- in
6:54 AM 6:28 PM
Waxing Gibbous, 68% visible
Pressure 30.09 in
Visibility 10.0 miles
Clouds Scattered Clouds 1200 ft
Overcast 2700 ft
Dew Point 53 °F
Humidity 82%
Rainfall -999.00 in
Snow Depth Not available.
UV 0 out of 12
Pollen 3.50 out of 12
Air Quality Not available.
Flu Activity Not available.
METAR KFMY 271153Z 04007KT 10SM SCT012 OVC027 14/12 A3008 RMK AO2 SLP189 70003 T01440117 10161 20144 53018

More Conditions Fewer Conditions

Pressure 30.09 in
Visibility 10.0 miles
Clouds Scattered Clouds 1200 ft
Overcast 2700 ft
Dew Point 53 °F
Humidity 82%
Rainfall -999.00 in
Snow Depth Not available.
UV 0 out of 12
Pollen 3.50 out of 12
Air Quality Not available.
Flu Activity Not available.
METAR KFMY 271153Z 04007KT 10SM SCT012 OVC027 14/12 A3008 RMK AO2 SLP189 70003 T01440117 10161 20144 53018

More Conditions Fewer Conditions

10-Day Weather Forecast

Almanac

Astronomy

Feb. 27, 2015 Rise Set
Actual Time
Civil Twilight
Nautical Twilight
Astronomical Twilight
Moon
Length of Visible Light
Length of Day
Tomorrow will be .
, % of the Moon is Illuminated

Today's Extremes

State Highs State Lows

Community

WunderPhotos

Upload Photos

1,800,663 photos uploaded!

WunderBlogs® & News

Nearby

Air Quality

  Air Quality AQ Index Pollutant
Not available.

Snow Depth

Station Depth Elevation

Earthquake Activity

City Distance Mag. Time & Date
Minimum magnitude displayed is 2.5.

Coastal Water Temperatures

Place Temperature

Nearby Weather Stations